^^

Meteo Aereoporti Centro-Italia

 

 
LIRZ - Perugia S.Egidio (208 m.)
Dati ricevuti: 25/01/2021 07:50
Coperto
Coperto
 Vento da direzione variabile
Vento: direzione variabile 6 km/h
TEMPERATURA: 2°C
P.to di Rugiada: 2°C
Umidità: 100%
Pressione: 1002 hPa
Nuvole: Coperto
Dettagli Nuvole: Coperto 945 m
2021/01/25 06:50 LIRZ 250650Z AUTO VRB03KT //// // OVC031/// 02/02 Q1002
 
LIPY - Ancona Falconara (12 m.)
Dati ricevuti: 25/01/2021 07:50
Pioggia debole, Coperto
Pioggia debole, Coperto
 Vento da SSW
Vento: SSW 7 km/h
TEMPERATURA: 6°C
Raffreddamento da Vento: 4°C
P.to di Rugiada: 5°C
Umidità: 93%
Pressione: 1002 hPa
Condizioni generali: Pioggia debole
Nuvole: Coperto
Visibilità: 10 km
Dettagli Nuvole: Coperto 1006 m
2021/01/25 06:50 LIPY 250650Z AUTO 21004KT 9999 -RA OVC033/// 06/05 Q1002 RERA
 
LIPR - Rimini Miramare (12 m.)
Dati ricevuti: 25/01/2021 07:50
Pioggia debole, Coperto
Pioggia debole, Coperto
 Vento da SSW
Vento: SSW 24 km/h
TEMPERATURA: 5°C
Raffreddamento da Vento: 1°C
P.to di Rugiada: 2°C
Umidità: 81%
Pressione: 1000 hPa
Condizioni generali: Pioggia debole
Nuvole: Coperto
Visibilità: 10 km
Dettagli Nuvole: Coperto 1219 m
2021/01/25 06:50 LIPR 250650Z AUTO 20013KT 9999 -RA OVC040/// 05/02 Q1000
 
LIRF - Roma Fiumicino (2 m.)
Dati ricevuti: 25/01/2021 07:50
Molto nuvoloso
Molto nuvoloso
 Vento da WSW
Vento: WSW 33 km/h
TEMPERATURA: 12°C
P.to di Rugiada: 8°C
Umidità: 77%
Pressione: 1004 hPa
Nuvole: Molto nuvoloso
Visibilità: 10 km
Dettagli Nuvole: Poco nuvoloso 762 m
Molto nuvoloso 1067 m
2021/01/25 06:50 LIRF 250650Z 25018KT 9999 SCT025 BKN035 12/08 Q1004 NOSIG
 
LIRA - Roma Ciampino (129 m.)
Dati ricevuti: 25/01/2021 07:50
Pioggia, Molto Nuvoloso
Pioggia, Molto Nuvoloso
 Vento da S
Vento: S 19 km/h
TEMPERATURA: 9°C
Raffreddamento da Vento: 6°C
P.to di Rugiada: 3°C
Umidità: 66%
Pressione: 1005 hPa
Condizioni generali: Pioggia
Nuvole: Molto nuvoloso
Visibilità: 7 km
Dettagli Nuvole: Poco nuvoloso 610 m
Molto nuvoloso 914 m
2021/01/25 06:50 LIRA 250650Z 19010KT 7000 RA SCT020 BKN030 09/03 Q1005
 
LIRU - Roma Urbe (17 m.)
Dati ricevuti: 25/01/2021 07:50
Pioggia, Molto Nuvoloso
Pioggia, Molto Nuvoloso
 Vento da calm
Vento: Calma
TEMPERATURA: 1°C
P.to di Rugiada: 1°C
Umidità: 100%
Pressione: 1005 hPa
Condizioni generali: Pioggia
Nuvole: Molto nuvoloso
Visibilità: 4 km
Dettagli Nuvole: Qualche nuvola 305 m
Molto nuvoloso 762 m
2021/01/25 06:50 LIRU 250650Z 00000KT 4000 1500SW RA FEW010 BKN025 01/01 Q1005
 
LIVF - Frontone (570 m.)
Dati ricevuti: 25/01/2021 07:55
Pioggia, Foschia, Coperto
Pioggia, Foschia, Coperto
 Vento da SSW
Vento: SSW 37 km/h
TEMPERATURA: 2°C
Raffreddamento da Vento: -4°C
P.to di Rugiada: 1°C
Umidità: 93%
Pressione: 998 hPa
Condizioni generali: Pioggia, Foschia
Nuvole: Coperto
Visibilità: 3 km
Dettagli Nuvole: Coperto 457 m
2021/01/25 06:55 LIVF 250655Z 20020KT 3000 RA BR OVC015 02/01 Q0998 RMK OVC MON INVIS VAL FOSCHIA VIS MIN 3000
 
LIRQ - Firenze Peretola (40 m.)
Dati ricevuti: 25/01/2021 07:50
Pioggia debole, Molto Nuvoloso
Pioggia debole, Molto Nuvoloso
 Vento da E
Vento: E 6 km/h
TEMPERATURA: 6°C
P.to di Rugiada: 5°C
Umidità: 93%
Pressione: 1000 hPa
Condizioni generali: Pioggia debole
Nuvole: Molto nuvoloso
Visibilità: 7 km
Dettagli Nuvole: Poco nuvoloso 762 m
Molto nuvoloso 1219 m
2021/01/25 06:50 LIRQ 250650Z 09003KT 030V120 7000 -RA SCT025 BKN040 06/05 Q1000
 
LIBP - Pescara (10 m.)
Dati ricevuti: 25/01/2021 07:50
Molto nuvoloso
Molto nuvoloso
 Vento da SW
Vento: SW 20 km/h
TEMPERATURA: 10°C
Raffreddamento da Vento: 7°C
P.to di Rugiada: -6°C
Umidità: 32%
Pressione: 1003 hPa
Nuvole: Molto nuvoloso
Visibilità: 10 km
Dettagli Nuvole: Molto nuvoloso 3658 m
Molto nuvoloso 5182 m
2021/01/25 06:50 LIBP 250650Z AUTO 23011KT 9999 BKN120/// BKN170/// 10/M06 Q1003
 
LIRV - Viterbo (300 m.)
Dati ricevuti: 25/01/2021 07:55
Pioggia debole, Molto Nuvoloso
Pioggia debole, Molto Nuvoloso
 Vento da S
Vento: S 20 km/h
TEMPERATURA: 7°C
Raffreddamento da Vento: 4°C
P.to di Rugiada: 2°C
Umidità: 71%
Pressione: 1002 hPa
Condizioni generali: Pioggia debole
Nuvole: Molto nuvoloso
Visibilità: 10 km
Dettagli Nuvole: Poco nuvoloso 549 m
Molto nuvoloso 732 m
2021/01/25 06:55 LIRV 250655Z 19011KT 9999 -RA SCT018 BKN024 07/02 Q1002
 
LIQN - Rieti (389 m.)
Dati ricevuti: 24/01/2021 17:50
Dati non aggiornati
Pioggia debole, Foschia, Molto Nuvoloso
Pioggia debole, Foschia, Molto Nuvoloso
 Vento da NNE
Vento: NNE 7 km/h
TEMPERATURA: 5°C
Raffreddamento da Vento: 3°C
P.to di Rugiada: 5°C
Umidità: 100%
Pressione: 995 hPa
Condizioni generali: Pioggia debole, Foschia
Nuvole: Molto nuvoloso
Visibilità: 4 km
Dettagli Nuvole: Qualche nuvola 152 m
Molto nuvoloso 762 m
2021/01/24 16:50 LIQN 241650Z 02004KT 4000 -RA BR FEW005 BKN025 05/05 Q0995
 
LIRG - Guidonia -RM- (88 m.)
Dati ricevuti: 25/01/2021 07:55
Pioggia, Molto Nuvoloso
Pioggia, Molto Nuvoloso
 Vento da direzione variabile
Vento: direzione variabile 7 km/h
TEMPERATURA: 4°C
Raffreddamento da Vento: 2°C
P.to di Rugiada: 2°C
Umidità: 87%
Pressione: 1006 hPa
Condizioni generali: Pioggia
Nuvole: Molto nuvoloso
Visibilità: 6 km
Dettagli Nuvole: Poco nuvoloso 457 m
Molto nuvoloso 914 m
2021/01/25 06:55 LIRG 250655Z VRB04KT 6000 RA SCT015 BKN030 04/02 Q1006
 
LIRK - Terminillo -RI-(1874 m.)
Dati ricevuti: 25/01/2021 06:29
Dati non aggiornati

 Vento da WNW
Vento: WNW 13 km/h
TEMPERATURA: -5°C
Raffreddamento da Vento: -10°C
P.to di Rugiada: -6°C
Umidità: 93%
Pressione: 1000 hPa
2021/01/25 05:29 LIRK 250529Z AUTO 30007KT //// M05/M06 Q1000
 
LIPK - Forlì (27 m.)
Dati ricevuti: 22/01/2021 17:50
Dati non aggiornati
Poco nuvoloso
Poco nuvoloso
 Vento da SE
Vento: SE 13 km/h
TEMPERATURA: 14°C
P.to di Rugiada: 6°C
Umidità: 59%
Pressione: 998 hPa
Nuvole: Poco nuvoloso
Visibilità: 10 km
Dettagli Nuvole: Poco nuvoloso 914 m
2021/01/22 16:50 LIPK 221650Z 13007KT 9999 SCT030 14/06 Q0998
 
LIRS - Grosseto (5 m.)
Dati ricevuti: 25/01/2021 07:55
Pioggia debole, Molto Nuvoloso
Pioggia debole, Molto Nuvoloso
 Vento da ENE
Vento: ENE 4 km/h
TEMPERATURA: 6°C
P.to di Rugiada: 4°C
Umidità: 87%
Pressione: 1001 hPa
Condizioni generali: Pioggia debole
Nuvole: Molto nuvoloso
Visibilità: 10 km
Dettagli Nuvole: Qualche nuvola 610 m
Molto nuvoloso 701 m
2021/01/25 06:55 LIRS 250655Z 07002KT 9999 -RA FEW020 BKN023 06/04 Q1001
 
LIRP - Pisa S.Giusto (2 m.)
Dati ricevuti: 25/01/2021 07:45
Molto nuvoloso
Molto nuvoloso
 Vento da SW
Vento: SW 43 km/h, Raffica: 61 km/h
TEMPERATURA: 11°C
P.to di Rugiada: 8°C
Umidità: 82%
Pressione: 999 hPa
Nuvole: Molto nuvoloso
Visibilità: 10 km
Dettagli Nuvole: Poco nuvoloso 762 m
Molto nuvoloso 1219 m
2021/01/25 06:45 LIRP 250645Z 23023G33KT 9999 SCT025 BKN040 11/08 Q0999 NOSIG